Charles Darwin — GDLS — position and weather

sailwx.info

Track history (hours):
 
Tides and Currents Weather Stations Pressure Air Temp Water Temp Dewpoint Dewpoint Depression Visibility Wind Speed Wind Dir Waves Ship Positions

Oceanographic research ship Charles Darwin (UK)

Detailed information on ship capabilities available from University of Delaware's Ocean Information Center.

Last reported at 2016-May-01 00:32 UTC. Time now 2016-May-04 06:04 UTC.
Position N 53°47' W 003°33'.

Length 70 m; draft 5.7 m.

Type: Cargo ship. MMSI: 235011460.

Date/timePositionNaut miles runAvg speedWind from/ knotsBaromVisibWave heightAir tempDewpointWater temp
2016-May-01 00:32N 53°47' W 003°33'4 4.3
2016-Apr-30 23:33N 53°46' W 003°39'4 4.4
2016-Apr-30 22:33N 53°44' W 003°46'5 4.7
2016-Apr-30 21:33N 53°42' W 003°54'232 5.5
2016-Apr-29 03:18N 50°02' W 005°53'32 4.7
2016-Apr-28 20:30N 50°00' W 005°02'7 7.1
2016-Apr-28 19:33N 50°07' W 004°60'1 0.2
2016-Apr-28 16:29N 50°08' W 004°59'0 0.0
2016-Apr-28 14:29N 50°08' W 004°59'0 0.0
2016-Apr-28 05:29N 50°08' W 004°59'0 0.0
2016-Apr-28 04:32N 50°08' W 004°59'0 0.0
2016-Apr-28 03:32N 50°08' W 004°60'0 0.0
2016-Apr-28 02:29N 50°08' W 004°60'0 0.0
2016-Apr-28 01:32N 50°08' W 004°60'0 0.0
2016-Apr-28 00:32N 50°08' W 004°60'0 0.0
2016-Apr-27 23:29N 50°08' W 004°59'0 0.0
2016-Apr-27 22:17N 50°08' W 004°59'0 0.0
2016-Apr-27 21:17N 50°08' W 004°59'0 0.0
2016-Apr-27 20:29N 50°08' W 004°59'0 0.0
2016-Apr-27 19:29N 50°08' W 004°59'0 0.0
2016-Apr-27 18:29N 50°07' W 004°60'0 0.0
2016-Apr-27 17:32N 50°07' W 004°59'0 0.0
2016-Apr-27 16:32N 50°07' W 004°60'0 0.0
2016-Apr-27 15:29N 50°07' W 004°60'0 0.1
2016-Apr-27 14:29N 50°07' W 004°59'0 0.0
2016-Apr-27 13:32N 50°07' W 004°59'0 0.0
2016-Apr-27 12:32N 50°07' W 004°60'0 0.0
2016-Apr-27 11:29N 50°07' W 004°60'0 0.0
2016-Apr-27 10:32N 50°07' W 004°59'0 0.0
2016-Apr-27 09:29N 50°07' W 004°59'0 0.0
2016-Apr-27 06:26N 50°08' W 004°59'0 0.0
2016-Apr-27 04:32N 50°07' W 004°59'0 0.0
2016-Apr-27 03:32N 50°07' W 004°60'0 0.0
2016-Apr-27 02:32N 50°07' W 004°60'0 0.0
2016-Apr-27 01:29N 50°07' W 004°60'0 0.0
2016-Apr-27 00:06N 50°07' W 004°60'0 0.0
2016-Apr-26 23:34N 50°07' W 004°60'0 0.0
2016-Apr-26 22:34N 50°07' W 004°59'0 0.0
2016-Apr-26 21:34N 50°07' W 004°59'0 0.0
2016-Apr-26 20:33N 50°07' W 004°59'0 0.0
2016-Apr-26 19:34N 50°07' W 004°60'0 0.0
2016-Apr-26 18:34N 50°08' W 004°59'0 0.0
2016-Apr-26 17:32N 50°07' W 004°60'0 0.0
2016-Apr-26 16:34N 50°07' W 004°60'0 0.0
2016-Apr-26 15:33N 50°07' W 004°60'0 0.0
2016-Apr-26 14:32N 50°07' W 004°60'0 0.0
2016-Apr-26 13:33N 50°07' W 004°60'0 0.0
2016-Apr-26 12:27N 50°07' W 004°60'0 0.0
2016-Apr-26 11:33N 50°07' W 004°60'0 0.0
2016-Apr-26 10:34N 50°07' W 004°60'0 0.0
2016-Apr-26 09:34N 50°08' W 004°59'1 1.3
2016-Apr-26 08:34N 50°06' W 004°60'6 6.0
2016-Apr-26 07:30N 49°60' W 005°02'3 3.7
2016-Apr-26 06:34N 49°57' W 005°06'  
Track history (hours):
 
Tides and Currents Weather Stations Pressure Air Temp Water Temp Dewpoint Dewpoint Depression Visibility Wind Speed Wind Dir Waves Ship Positions

Oceanographic research ship Charles Darwin (UK)

Detailed information on ship capabilities available from University of Delaware's Ocean Information Center.

Last reported at 2016-May-01 00:32 UTC. Time now 2016-May-04 06:04 UTC.
Position N 53°47' W 003°33'.

Length 70 m; draft 5.7 m.

Type: Cargo ship. MMSI: 235011460.

Date/timePositionNaut miles runAvg speedWind from/ knotsBaromVisibWave heightAir tempDewpointWater temp
2016-May-01 00:32N 53°47' W 003°33'4 4.3
2016-Apr-30 23:33N 53°46' W 003°39'4 4.4
2016-Apr-30 22:33N 53°44' W 003°46'5 4.7
2016-Apr-30 21:33N 53°42' W 003°54'232 5.5
2016-Apr-29 03:18N 50°02' W 005°53'32 4.7
2016-Apr-28 20:30N 50°00' W 005°02'7 7.1
2016-Apr-28 19:33N 50°07' W 004°60'1 0.2
2016-Apr-28 16:29N 50°08' W 004°59'0 0.0
2016-Apr-28 14:29N 50°08' W 004°59'0 0.0
2016-Apr-28 05:29N 50°08' W 004°59'0 0.0
2016-Apr-28 04:32N 50°08' W 004°59'0 0.0
2016-Apr-28 03:32N 50°08' W 004°60'0 0.0
2016-Apr-28 02:29N 50°08' W 004°60'0 0.0
2016-Apr-28 01:32N 50°08' W 004°60'0 0.0
2016-Apr-28 00:32N 50°08' W 004°60'0 0.0
2016-Apr-27 23:29N 50°08' W 004°59'0 0.0
2016-Apr-27 22:17N 50°08' W 004°59'0 0.0
2016-Apr-27 21:17N 50°08' W 004°59'0 0.0
2016-Apr-27 20:29N 50°08' W 004°59'0 0.0
2016-Apr-27 19:29N 50°08' W 004°59'0 0.0
2016-Apr-27 18:29N 50°07' W 004°60'0 0.0
2016-Apr-27 17:32N 50°07' W 004°59'0 0.0
2016-Apr-27 16:32N 50°07' W 004°60'0 0.0
2016-Apr-27 15:29N 50°07' W 004°60'0 0.1
2016-Apr-27 14:29N 50°07' W 004°59'0 0.0
2016-Apr-27 13:32N 50°07' W 004°59'0 0.0
2016-Apr-27 12:32N 50°07' W 004°60'0 0.0
2016-Apr-27 11:29N 50°07' W 004°60'0 0.0
2016-Apr-27 10:32N 50°07' W 004°59'0 0.0
2016-Apr-27 09:29N 50°07' W 004°59'0 0.0
2016-Apr-27 06:26N 50°08' W 004°59'0 0.0
2016-Apr-27 04:32N 50°07' W 004°59'0 0.0
2016-Apr-27 03:32N 50°07' W 004°60'0 0.0
2016-Apr-27 02:32N 50°07' W 004°60'0 0.0
2016-Apr-27 01:29N 50°07' W 004°60'0 0.0
2016-Apr-27 00:06N 50°07' W 004°60'0 0.0
2016-Apr-26 23:34N 50°07' W 004°60'0 0.0
2016-Apr-26 22:34N 50°07' W 004°59'0 0.0
2016-Apr-26 21:34N 50°07' W 004°59'0 0.0
2016-Apr-26 20:33N 50°07' W 004°59'0 0.0
2016-Apr-26 19:34N 50°07' W 004°60'0 0.0
2016-Apr-26 18:34N 50°08' W 004°59'0 0.0
2016-Apr-26 17:32N 50°07' W 004°60'0 0.0
2016-Apr-26 16:34N 50°07' W 004°60'0 0.0
2016-Apr-26 15:33N 50°07' W 004°60'0 0.0
2016-Apr-26 14:32N 50°07' W 004°60'0 0.0
2016-Apr-26 13:33N 50°07' W 004°60'0 0.0
2016-Apr-26 12:27N 50°07' W 004°60'0 0.0
2016-Apr-26 11:33N 50°07' W 004°60'0 0.0
2016-Apr-26 10:34N 50°07' W 004°60'0 0.0
2016-Apr-26 09:34N 50°08' W 004°59'1 1.3
2016-Apr-26 08:34N 50°06' W 004°60'6 6.0
2016-Apr-26 07:30N 49°60' W 005°02'3 3.7
2016-Apr-26 06:34N 49°57' W 005°06'  

Dump ship's entire track history